<?xml version="1.0" encoding="UTF-8" standalone="no" ?>
<gpx xmlns="http://www.topografix.com/GPX/1/1" xmlns:xsi="http://www.w3.org/2001/XMLSchema-instance" xsi:schemaLocation="http://www.topografix.com/GPX/1/1 http://www.topografix.com/GPX/1/1/gpx.xsd" version="1.1" creator="VisuGPX - https://www.visugpx.com">
  <metadata>
    <name>J2: Refuge Bachimana 2177m ==&gt; Pico de Tebarray 2886m ==&gt; Refuge Respumoso</name>
    <desc><![CDATA[ Gagner le bout du lac de Bachimana et se diriger vers l\\\'ouest pour rejoindre le col del Infierno, longer le lac de Tebarray pour rejoindre l%u2019arrête sud qui mène au Pico de Tebarray(pentes 30°)(attention sur les cartes espagnoles ce pic est souvent nommé pic de Pondiellos) rejoindre le lac puis le col de Piedrafita et descendre vers le refuge Respumoso (il faudra repauter pour passer la petite bosse devant le refuge.]]></desc>
  </metadata>
  <trk>
    <name><![CDATA[J2 tour ref Bachimana-Pico Tebarray-ref Respumoso]]></name>
    <cmt><![CDATA[Le pic de Tebarray se fait ski aux pieds. Descente sympa vers Respumoso, il faudra repauter pour passer les 2 petites bosses avant le refuge.]]></cmt>
    <desc><![CDATA[Le pic de Tebarray se fait ski aux pieds. Descente sympa vers Respumoso, il faudra repauter pour passer les 2 petites bosses avant le refuge.]]></desc>
    <trkseg>
      <trkpt lat="42.78073" lon="-0.22754">
        <ele>2230.9</ele>
        <time>2014-06-29T12:12:17Z</time>
      </trkpt>
      <trkpt lat="42.78061" lon="-0.22749">
        <ele>2221.7</ele>
        <time>2014-06-29T12:12:37Z</time>
      </trkpt>
      <trkpt lat="42.78053" lon="-0.22711">
        <ele>2206.4</ele>
        <time>2014-06-29T12:12:57Z</time>
      </trkpt>
      <trkpt lat="42.78074" lon="-0.22661">
        <ele>2204</ele>
        <time>2014-06-29T12:13:17Z</time>
      </trkpt>
      <trkpt lat="42.78078" lon="-0.22645">
        <ele>2203</ele>
        <time>2014-06-29T12:13:37Z</time>
      </trkpt>
      <trkpt lat="42.78075" lon="-0.22612">
        <ele>2194.3</ele>
        <time>2014-06-29T12:13:57Z</time>
      </trkpt>
      <trkpt lat="42.78082" lon="-0.22586">
        <ele>2189.5</ele>
        <time>2014-06-29T12:14:17Z</time>
      </trkpt>
      <trkpt lat="42.78082" lon="-0.22566">
        <ele>2184.7</ele>
        <time>2014-06-29T12:14:37Z</time>
      </trkpt>
      <trkpt lat="42.78091" lon="-0.22532">
        <ele>2189.5</ele>
        <time>2014-06-29T12:14:57Z</time>
      </trkpt>
      <trkpt lat="42.78089" lon="-0.22511">
        <ele>2189.1</ele>
        <time>2014-06-29T12:15:17Z</time>
      </trkpt>
      <trkpt lat="42.78091" lon="-0.22395">
        <ele>2199.2</ele>
        <time>2014-06-29T12:15:37Z</time>
      </trkpt>
      <trkpt lat="42.78109" lon="-0.22363">
        <ele>2207.8</ele>
        <time>2014-06-29T12:15:57Z</time>
      </trkpt>
      <trkpt lat="42.78107" lon="-0.22363">
        <ele>2204.9</ele>
        <time>2014-06-29T12:16:17Z</time>
      </trkpt>
      <trkpt lat="42.78111" lon="-0.22345">
        <ele>2204</ele>
        <time>2014-06-29T12:16:37Z</time>
      </trkpt>
      <trkpt lat="42.78122" lon="-0.22306">
        <ele>2206.4</ele>
        <time>2014-06-29T12:16:57Z</time>
      </trkpt>
      <trkpt lat="42.78122" lon="-0.2232">
        <ele>2207.3</ele>
        <time>2014-06-29T12:17:17Z</time>
      </trkpt>
      <trkpt lat="42.78129" lon="-0.22318">
        <ele>2208.3</ele>
        <time>2014-06-29T12:17:37Z</time>
      </trkpt>
      <trkpt lat="42.78151" lon="-0.22296">
        <ele>2204.4</ele>
        <time>2014-06-29T12:17:57Z</time>
      </trkpt>
      <trkpt lat="42.78148" lon="-0.22308">
        <ele>2205.4</ele>
        <time>2014-06-29T12:18:17Z</time>
      </trkpt>
      <trkpt lat="42.7815" lon="-0.22312">
        <ele>2205.9</ele>
        <time>2014-06-29T12:18:37Z</time>
      </trkpt>
      <trkpt lat="42.78161" lon="-0.22316">
        <ele>2207.3</ele>
        <time>2014-06-29T12:18:57Z</time>
      </trkpt>
      <trkpt lat="42.78166" lon="-0.2231">
        <ele>2209.7</ele>
        <time>2014-06-29T12:19:17Z</time>
      </trkpt>
      <trkpt lat="42.78197" lon="-0.22292">
        <ele>2210.2</ele>
        <time>2014-06-29T12:19:37Z</time>
      </trkpt>
      <trkpt lat="42.78211" lon="-0.22279">
        <ele>2209.2</ele>
        <time>2014-06-29T12:19:57Z</time>
      </trkpt>
      <trkpt lat="42.78261" lon="-0.22231">
        <ele>2193.4</ele>
        <time>2014-06-29T12:20:17Z</time>
      </trkpt>
      <trkpt lat="42.78297" lon="-0.222">
        <ele>2197.2</ele>
        <time>2014-06-29T12:20:37Z</time>
      </trkpt>
      <trkpt lat="42.78306" lon="-0.22189">
        <ele>2196.7</ele>
        <time>2014-06-29T12:20:57Z</time>
      </trkpt>
      <trkpt lat="42.7831" lon="-0.22189">
        <ele>2196.3</ele>
        <time>2014-06-29T12:21:17Z</time>
      </trkpt>
      <trkpt lat="42.78324" lon="-0.22175">
        <ele>2195.8</ele>
        <time>2014-06-29T12:21:37Z</time>
      </trkpt>
      <trkpt lat="42.78355" lon="-0.22167">
        <ele>2190.5</ele>
        <time>2014-06-29T12:21:57Z</time>
      </trkpt>
      <trkpt lat="42.78376" lon="-0.2218">
        <ele>2177.5</ele>
        <time>2014-06-29T12:22:17Z</time>
      </trkpt>
      <trkpt lat="42.78392" lon="-0.22186">
        <ele>2172.7</ele>
        <time>2014-06-29T12:22:37Z</time>
      </trkpt>
      <trkpt lat="42.78415" lon="-0.22204">
        <ele>2160.7</ele>
        <time>2014-06-29T12:22:57Z</time>
      </trkpt>
      <trkpt lat="42.78441" lon="-0.2225">
        <ele>2144.4</ele>
        <time>2014-06-29T12:23:17Z</time>
      </trkpt>
      <trkpt lat="42.78474" lon="-0.22298">
        <ele>2130.9</ele>
        <time>2014-06-29T12:23:37Z</time>
      </trkpt>
      <trkpt lat="42.78483" lon="-0.22317">
        <ele>2124.7</ele>
        <time>2014-06-29T12:23:57Z</time>
      </trkpt>
      <trkpt lat="42.78499" lon="-0.22336">
        <ele>2120.8</ele>
        <time>2014-06-29T12:24:17Z</time>
      </trkpt>
      <trkpt lat="42.7852" lon="-0.22369">
        <ele>2114.1</ele>
        <time>2014-06-29T12:24:37Z</time>
      </trkpt>
      <trkpt lat="42.78547" lon="-0.22404">
        <ele>2117.4</ele>
        <time>2014-06-29T12:24:57Z</time>
      </trkpt>
      <trkpt lat="42.78565" lon="-0.22422">
        <ele>2121.8</ele>
        <time>2014-06-29T12:25:17Z</time>
      </trkpt>
      <trkpt lat="42.78604" lon="-0.2245">
        <ele>2130.9</ele>
        <time>2014-06-29T12:25:37Z</time>
      </trkpt>
      <trkpt lat="42.78658" lon="-0.22494">
        <ele>2133.3</ele>
        <time>2014-06-29T12:25:57Z</time>
      </trkpt>
      <trkpt lat="42.78677" lon="-0.22505">
        <ele>2136.2</ele>
        <time>2014-06-29T12:26:17Z</time>
      </trkpt>
      <trkpt lat="42.7869" lon="-0.22518">
        <ele>2138.6</ele>
        <time>2014-06-29T12:26:37Z</time>
      </trkpt>
      <trkpt lat="42.78697" lon="-0.22544">
        <ele>2137.6</ele>
        <time>2014-06-29T12:26:57Z</time>
      </trkpt>
      <trkpt lat="42.78711" lon="-0.22571">
        <ele>2138.1</ele>
        <time>2014-06-29T12:27:17Z</time>
      </trkpt>
      <trkpt lat="42.78726" lon="-0.22593">
        <ele>2145.8</ele>
        <time>2014-06-29T12:27:37Z</time>
      </trkpt>
      <trkpt lat="42.78739" lon="-0.22608">
        <ele>2147.2</ele>
        <time>2014-06-29T12:27:57Z</time>
      </trkpt>
      <trkpt lat="42.78749" lon="-0.22619">
        <ele>2152</ele>
        <time>2014-06-29T12:28:17Z</time>
      </trkpt>
      <trkpt lat="42.78755" lon="-0.22615">
        <ele>2154.5</ele>
        <time>2014-06-29T12:28:37Z</time>
      </trkpt>
      <trkpt lat="42.78781" lon="-0.22625">
        <ele>2163.6</ele>
        <time>2014-06-29T12:28:57Z</time>
      </trkpt>
      <trkpt lat="42.78783" lon="-0.22634">
        <ele>2165</ele>
        <time>2014-06-29T12:29:17Z</time>
      </trkpt>
      <trkpt lat="42.78778" lon="-0.22651">
        <ele>2169.8</ele>
        <time>2014-06-29T12:29:37Z</time>
      </trkpt>
      <trkpt lat="42.78779" lon="-0.22669">
        <ele>2178.5</ele>
        <time>2014-06-29T12:29:57Z</time>
      </trkpt>
      <trkpt lat="42.78782" lon="-0.22687">
        <ele>2194.3</ele>
        <time>2014-06-29T12:30:17Z</time>
      </trkpt>
      <trkpt lat="42.78786" lon="-0.22712">
        <ele>2198.7</ele>
        <time>2014-06-29T12:30:37Z</time>
      </trkpt>
      <trkpt lat="42.7879" lon="-0.22721">
        <ele>2198.7</ele>
        <time>2014-06-29T12:30:57Z</time>
      </trkpt>
      <trkpt lat="42.78805" lon="-0.22733">
        <ele>2196.3</ele>
        <time>2014-06-29T12:31:17Z</time>
      </trkpt>
      <trkpt lat="42.78834" lon="-0.22767">
        <ele>2197.7</ele>
        <time>2014-06-29T12:31:37Z</time>
      </trkpt>
      <trkpt lat="42.78847" lon="-0.22776">
        <ele>2199.2</ele>
        <time>2014-06-29T12:31:57Z</time>
      </trkpt>
      <trkpt lat="42.78851" lon="-0.22776">
        <ele>2200.6</ele>
        <time>2014-06-29T12:32:17Z</time>
      </trkpt>
      <trkpt lat="42.78859" lon="-0.22802">
        <ele>2203.5</ele>
        <time>2014-06-29T12:32:37Z</time>
      </trkpt>
      <trkpt lat="42.78881" lon="-0.22842">
        <ele>2204.4</ele>
        <time>2014-06-29T12:32:57Z</time>
      </trkpt>
      <trkpt lat="42.7891" lon="-0.22919">
        <ele>2216</ele>
        <time>2014-06-29T12:33:17Z</time>
      </trkpt>
      <trkpt lat="42.78908" lon="-0.22914">
        <ele>2217.4</ele>
        <time>2014-06-29T12:33:37Z</time>
      </trkpt>
      <trkpt lat="42.78898" lon="-0.22911">
        <ele>2222.2</ele>
        <time>2014-06-29T12:33:57Z</time>
      </trkpt>
      <trkpt lat="42.78897" lon="-0.22924">
        <ele>2224.6</ele>
        <time>2014-06-29T12:34:17Z</time>
      </trkpt>
      <trkpt lat="42.78899" lon="-0.22958">
        <ele>2222.7</ele>
        <time>2014-06-29T12:34:37Z</time>
      </trkpt>
      <trkpt lat="42.78901" lon="-0.22971">
        <ele>2220.3</ele>
        <time>2014-06-29T12:34:57Z</time>
      </trkpt>
      <trkpt lat="42.78926" lon="-0.23">
        <ele>2227</ele>
        <time>2014-06-29T12:35:17Z</time>
      </trkpt>
      <trkpt lat="42.78939" lon="-0.23071">
        <ele>2227.5</ele>
        <time>2014-06-29T12:35:37Z</time>
      </trkpt>
      <trkpt lat="42.78948" lon="-0.23099">
        <ele>2223.7</ele>
        <time>2014-06-29T12:35:57Z</time>
      </trkpt>
      <trkpt lat="42.78947" lon="-0.2311">
        <ele>2221.7</ele>
        <time>2014-06-29T12:36:17Z</time>
      </trkpt>
      <trkpt lat="42.78951" lon="-0.23117">
        <ele>2226.6</ele>
        <time>2014-06-29T12:36:37Z</time>
      </trkpt>
      <trkpt lat="42.78952" lon="-0.23135">
        <ele>2225.6</ele>
        <time>2014-06-29T12:36:57Z</time>
      </trkpt>
      <trkpt lat="42.78952" lon="-0.23161">
        <ele>2230.9</ele>
        <time>2014-06-29T12:37:17Z</time>
      </trkpt>
      <trkpt lat="42.78951" lon="-0.23192">
        <ele>2227</ele>
        <time>2014-06-29T12:37:37Z</time>
      </trkpt>
      <trkpt lat="42.78945" lon="-0.23242">
        <ele>2229</ele>
        <time>2014-06-29T12:37:57Z</time>
      </trkpt>
      <trkpt lat="42.78948" lon="-0.23262">
        <ele>2232.3</ele>
        <time>2014-06-29T12:38:17Z</time>
      </trkpt>
      <trkpt lat="42.78947" lon="-0.23269">
        <ele>2229</ele>
        <time>2014-06-29T12:38:37Z</time>
      </trkpt>
      <trkpt lat="42.78959" lon="-0.23286">
        <ele>2228.5</ele>
        <time>2014-06-29T12:38:57Z</time>
      </trkpt>
      <trkpt lat="42.78961" lon="-0.23298">
        <ele>2224.1</ele>
        <time>2014-06-29T12:39:17Z</time>
      </trkpt>
      <trkpt lat="42.78961" lon="-0.23303">
        <ele>2226.6</ele>
        <time>2014-06-29T12:39:37Z</time>
      </trkpt>
      <trkpt lat="42.78961" lon="-0.23318">
        <ele>2227</ele>
        <time>2014-06-29T12:39:57Z</time>
      </trkpt>
      <trkpt lat="42.78956" lon="-0.23373">
        <ele>2238.1</ele>
        <time>2014-06-29T12:40:17Z</time>
      </trkpt>
      <trkpt lat="42.78942" lon="-0.23409">
        <ele>2247.7</ele>
        <time>2014-06-29T12:40:37Z</time>
      </trkpt>
      <trkpt lat="42.78939" lon="-0.23419">
        <ele>2246.3</ele>
        <time>2014-06-29T12:40:57Z</time>
      </trkpt>
      <trkpt lat="42.78917" lon="-0.23423">
        <ele>2247.2</ele>
        <time>2014-06-29T12:41:17Z</time>
      </trkpt>
      <trkpt lat="42.78918" lon="-0.23438">
        <ele>2247.7</ele>
        <time>2014-06-29T12:41:37Z</time>
      </trkpt>
      <trkpt lat="42.78905" lon="-0.23432">
        <ele>2253</ele>
        <time>2014-06-29T12:41:57Z</time>
      </trkpt>
      <trkpt lat="42.78903" lon="-0.23439">
        <ele>2254.9</ele>
        <time>2014-06-29T12:42:17Z</time>
      </trkpt>
      <trkpt lat="42.78906" lon="-0.23492">
        <ele>2263.6</ele>
        <time>2014-06-29T12:42:37Z</time>
      </trkpt>
      <trkpt lat="42.78904" lon="-0.23506">
        <ele>2265.5</ele>
        <time>2014-06-29T12:42:57Z</time>
      </trkpt>
      <trkpt lat="42.78898" lon="-0.23554">
        <ele>2279.4</ele>
        <time>2014-06-29T12:43:17Z</time>
      </trkpt>
      <trkpt lat="42.78899" lon="-0.23572">
        <ele>2278.9</ele>
        <time>2014-06-29T12:43:37Z</time>
      </trkpt>
      <trkpt lat="42.789" lon="-0.23605">
        <ele>2285.7</ele>
        <time>2014-06-29T12:43:57Z</time>
      </trkpt>
      <trkpt lat="42.789" lon="-0.23621">
        <ele>2282.3</ele>
        <time>2014-06-29T12:44:17Z</time>
      </trkpt>
      <trkpt lat="42.78906" lon="-0.23662">
        <ele>2291.9</ele>
        <time>2014-06-29T12:44:37Z</time>
      </trkpt>
      <trkpt lat="42.78907" lon="-0.23692">
        <ele>2301.5</ele>
        <time>2014-06-29T12:44:57Z</time>
      </trkpt>
      <trkpt lat="42.78895" lon="-0.23713">
        <ele>2307.3</ele>
        <time>2014-06-29T12:45:17Z</time>
      </trkpt>
      <trkpt lat="42.7889" lon="-0.23728">
        <ele>2306.8</ele>
        <time>2014-06-29T12:45:37Z</time>
      </trkpt>
      <trkpt lat="42.78886" lon="-0.23738">
        <ele>2302</ele>
        <time>2014-06-29T12:45:57Z</time>
      </trkpt>
      <trkpt lat="42.78889" lon="-0.23755">
        <ele>2299.1</ele>
        <time>2014-06-29T12:46:17Z</time>
      </trkpt>
      <trkpt lat="42.78905" lon="-0.23782">
        <ele>2301.5</ele>
        <time>2014-06-29T12:46:37Z</time>
      </trkpt>
      <trkpt lat="42.78916" lon="-0.23815">
        <ele>2311.6</ele>
        <time>2014-06-29T12:46:57Z</time>
      </trkpt>
      <trkpt lat="42.78916" lon="-0.23833">
        <ele>2313.5</ele>
        <time>2014-06-29T12:47:17Z</time>
      </trkpt>
      <trkpt lat="42.78884" lon="-0.23914">
        <ele>2332.3</ele>
        <time>2014-06-29T12:47:37Z</time>
      </trkpt>
      <trkpt lat="42.78881" lon="-0.23923">
        <ele>2331.8</ele>
        <time>2014-06-29T12:47:57Z</time>
      </trkpt>
      <trkpt lat="42.78899" lon="-0.23936">
        <ele>2332.8</ele>
        <time>2014-06-29T12:48:17Z</time>
      </trkpt>
      <trkpt lat="42.789" lon="-0.23947">
        <ele>2335.7</ele>
        <time>2014-06-29T12:48:37Z</time>
      </trkpt>
      <trkpt lat="42.78889" lon="-0.23979">
        <ele>2344.8</ele>
        <time>2014-06-29T12:48:57Z</time>
      </trkpt>
      <trkpt lat="42.7887" lon="-0.24007">
        <ele>2348.2</ele>
        <time>2014-06-29T12:49:17Z</time>
      </trkpt>
      <trkpt lat="42.78858" lon="-0.24067">
        <ele>2358.3</ele>
        <time>2014-06-29T12:49:37Z</time>
      </trkpt>
      <trkpt lat="42.78848" lon="-0.24072">
        <ele>2365</ele>
        <time>2014-06-29T12:49:57Z</time>
      </trkpt>
      <trkpt lat="42.78842" lon="-0.24094">
        <ele>2370.3</ele>
        <time>2014-06-29T12:50:17Z</time>
      </trkpt>
      <trkpt lat="42.78834" lon="-0.24156">
        <ele>2374.1</ele>
        <time>2014-06-29T12:50:37Z</time>
      </trkpt>
      <trkpt lat="42.78833" lon="-0.24188">
        <ele>2381.8</ele>
        <time>2014-06-29T12:50:57Z</time>
      </trkpt>
      <trkpt lat="42.78833" lon="-0.24222">
        <ele>2378</ele>
        <time>2014-06-29T12:51:17Z</time>
      </trkpt>
      <trkpt lat="42.78828" lon="-0.24255">
        <ele>2376</ele>
        <time>2014-06-29T12:51:37Z</time>
      </trkpt>
      <trkpt lat="42.78833" lon="-0.24273">
        <ele>2378.9</ele>
        <time>2014-06-29T12:51:57Z</time>
      </trkpt>
      <trkpt lat="42.78832" lon="-0.24292">
        <ele>2382.8</ele>
        <time>2014-06-29T12:52:17Z</time>
      </trkpt>
      <trkpt lat="42.78838" lon="-0.24291">
        <ele>2387.1</ele>
        <time>2014-06-29T12:52:37Z</time>
      </trkpt>
      <trkpt lat="42.78845" lon="-0.24361">
        <ele>2401.5</ele>
        <time>2014-06-29T12:52:57Z</time>
      </trkpt>
      <trkpt lat="42.78846" lon="-0.24378">
        <ele>2397.7</ele>
        <time>2014-06-29T12:53:17Z</time>
      </trkpt>
      <trkpt lat="42.78845" lon="-0.2442">
        <ele>2397.7</ele>
        <time>2014-06-29T12:53:37Z</time>
      </trkpt>
      <trkpt lat="42.78869" lon="-0.24493">
        <ele>2406.8</ele>
        <time>2014-06-29T12:53:57Z</time>
      </trkpt>
      <trkpt lat="42.78871" lon="-0.24492">
        <ele>2411.6</ele>
        <time>2014-06-29T12:54:17Z</time>
      </trkpt>
      <trkpt lat="42.78875" lon="-0.24496">
        <ele>2412.6</ele>
        <time>2014-06-29T12:54:37Z</time>
      </trkpt>
      <trkpt lat="42.78877" lon="-0.24497">
        <ele>2410.2</ele>
        <time>2014-06-29T12:54:57Z</time>
      </trkpt>
      <trkpt lat="42.78924" lon="-0.24541">
        <ele>2403.9</ele>
        <time>2014-06-29T12:55:17Z</time>
      </trkpt>
      <trkpt lat="42.7896" lon="-0.24569">
        <ele>2393.8</ele>
        <time>2014-06-29T12:55:37Z</time>
      </trkpt>
      <trkpt lat="42.78975" lon="-0.24594">
        <ele>2393.3</ele>
        <time>2014-06-29T12:55:57Z</time>
      </trkpt>
      <trkpt lat="42.78992" lon="-0.24614">
        <ele>2395.7</ele>
        <time>2014-06-29T12:56:17Z</time>
      </trkpt>
      <trkpt lat="42.78996" lon="-0.24627">
        <ele>2403.9</ele>
        <time>2014-06-29T12:56:37Z</time>
      </trkpt>
      <trkpt lat="42.79013" lon="-0.24651">
        <ele>2413</ele>
        <time>2014-06-29T12:56:57Z</time>
      </trkpt>
      <trkpt lat="42.79016" lon="-0.24651">
        <ele>2419.3</ele>
        <time>2014-06-29T12:57:17Z</time>
      </trkpt>
      <trkpt lat="42.7903" lon="-0.24663">
        <ele>2416.4</ele>
        <time>2014-06-29T12:57:37Z</time>
      </trkpt>
      <trkpt lat="42.79043" lon="-0.2467">
        <ele>2415.9</ele>
        <time>2014-06-29T12:57:57Z</time>
      </trkpt>
      <trkpt lat="42.79045" lon="-0.2467">
        <ele>2414</ele>
        <time>2014-06-29T12:58:17Z</time>
      </trkpt>
      <trkpt lat="42.79042" lon="-0.24686">
        <ele>2419.8</ele>
        <time>2014-06-29T12:58:37Z</time>
      </trkpt>
      <trkpt lat="42.79033" lon="-0.24753">
        <ele>2429.4</ele>
        <time>2014-06-29T12:58:57Z</time>
      </trkpt>
      <trkpt lat="42.79033" lon="-0.24771">
        <ele>2434.7</ele>
        <time>2014-06-29T12:59:17Z</time>
      </trkpt>
      <trkpt lat="42.79038" lon="-0.24819">
        <ele>2442.4</ele>
        <time>2014-06-29T12:59:37Z</time>
      </trkpt>
      <trkpt lat="42.79038" lon="-0.24839">
        <ele>2449.6</ele>
        <time>2014-06-29T12:59:57Z</time>
      </trkpt>
      <trkpt lat="42.7904" lon="-0.24858">
        <ele>2448.1</ele>
        <time>2014-06-29T13:00:17Z</time>
      </trkpt>
      <trkpt lat="42.79041" lon="-0.24883">
        <ele>2453.9</ele>
        <time>2014-06-29T13:00:37Z</time>
      </trkpt>
      <trkpt lat="42.79048" lon="-0.24901">
        <ele>2454.9</ele>
        <time>2014-06-29T13:00:57Z</time>
      </trkpt>
      <trkpt lat="42.79053" lon="-0.24929">
        <ele>2454.9</ele>
        <time>2014-06-29T13:01:17Z</time>
      </trkpt>
      <trkpt lat="42.7904" lon="-0.24964">
        <ele>2454.9</ele>
        <time>2014-06-29T13:01:37Z</time>
      </trkpt>
      <trkpt lat="42.79039" lon="-0.24983">
        <ele>2455.8</ele>
        <time>2014-06-29T13:01:57Z</time>
      </trkpt>
      <trkpt lat="42.79027" lon="-0.25022">
        <ele>2452.5</ele>
        <time>2014-06-29T13:02:17Z</time>
      </trkpt>
      <trkpt lat="42.7898" lon="-0.25054">
        <ele>2448.1</ele>
        <time>2014-06-29T13:02:37Z</time>
      </trkpt>
      <trkpt lat="42.78966" lon="-0.25078">
        <ele>2444.8</ele>
        <time>2014-06-29T13:02:57Z</time>
      </trkpt>
      <trkpt lat="42.78961" lon="-0.25097">
        <ele>2440.9</ele>
        <time>2014-06-29T13:03:17Z</time>
      </trkpt>
      <trkpt lat="42.78986" lon="-0.25117">
        <ele>2437.6</ele>
        <time>2014-06-29T13:03:37Z</time>
      </trkpt>
      <trkpt lat="42.78982" lon="-0.25141">
        <ele>2437.1</ele>
        <time>2014-06-29T13:03:57Z</time>
      </trkpt>
      <trkpt lat="42.78969" lon="-0.2517">
        <ele>2435.2</ele>
        <time>2014-06-29T13:04:17Z</time>
      </trkpt>
      <trkpt lat="42.78977" lon="-0.25185">
        <ele>2433.7</ele>
        <time>2014-06-29T13:04:37Z</time>
      </trkpt>
      <trkpt lat="42.78978" lon="-0.25213">
        <ele>2440.9</ele>
        <time>2014-06-29T13:04:57Z</time>
      </trkpt>
      <trkpt lat="42.78984" lon="-0.25235">
        <ele>2443.3</ele>
        <time>2014-06-29T13:05:17Z</time>
      </trkpt>
      <trkpt lat="42.78984" lon="-0.25274">
        <ele>2444.8</ele>
        <time>2014-06-29T13:05:37Z</time>
      </trkpt>
      <trkpt lat="42.79011" lon="-0.25252">
        <ele>2446.7</ele>
        <time>2014-06-29T13:05:57Z</time>
      </trkpt>
      <trkpt lat="42.79007" lon="-0.25275">
        <ele>2446.7</ele>
        <time>2014-06-29T13:06:17Z</time>
      </trkpt>
      <trkpt lat="42.79023" lon="-0.25281">
        <ele>2448.1</ele>
        <time>2014-06-29T13:06:37Z</time>
      </trkpt>
      <trkpt lat="42.79026" lon="-0.25291">
        <ele>2448.6</ele>
        <time>2014-06-29T13:06:57Z</time>
      </trkpt>
      <trkpt lat="42.79011" lon="-0.25283">
        <ele>2451</ele>
        <time>2014-06-29T13:07:17Z</time>
      </trkpt>
      <trkpt lat="42.78991" lon="-0.25292">
        <ele>2457.3</ele>
        <time>2014-06-29T13:07:37Z</time>
      </trkpt>
      <trkpt lat="42.78974" lon="-0.2531">
        <ele>2461.6</ele>
        <time>2014-06-29T13:07:57Z</time>
      </trkpt>
      <trkpt lat="42.78963" lon="-0.2533">
        <ele>2463.5</ele>
        <time>2014-06-29T13:08:17Z</time>
      </trkpt>
      <trkpt lat="42.78938" lon="-0.25352">
        <ele>2465.4</ele>
        <time>2014-06-29T13:08:37Z</time>
      </trkpt>
      <trkpt lat="42.79016" lon="-0.25328">
        <ele>2467.4</ele>
        <time>2014-06-29T13:08:57Z</time>
      </trkpt>
      <trkpt lat="42.79018" lon="-0.25323">
        <ele>2467.8</ele>
        <time>2014-06-29T13:09:17Z</time>
      </trkpt>
      <trkpt lat="42.79015" lon="-0.25322">
        <ele>2466.4</ele>
        <time>2014-06-29T13:09:37Z</time>
      </trkpt>
      <trkpt lat="42.78997" lon="-0.25335">
        <ele>2464.5</ele>
        <time>2014-06-29T13:09:57Z</time>
      </trkpt>
      <trkpt lat="42.78993" lon="-0.25358">
        <ele>2465</ele>
        <time>2014-06-29T13:10:17Z</time>
      </trkpt>
      <trkpt lat="42.78978" lon="-0.25391">
        <ele>2467.4</ele>
        <time>2014-06-29T13:10:37Z</time>
      </trkpt>
      <trkpt lat="42.78981" lon="-0.25408">
        <ele>2475.5</ele>
        <time>2014-06-29T13:10:57Z</time>
      </trkpt>
      <trkpt lat="42.78977" lon="-0.25466">
        <ele>2482.3</ele>
        <time>2014-06-29T13:11:17Z</time>
      </trkpt>
      <trkpt lat="42.78978" lon="-0.25486">
        <ele>2481.8</ele>
        <time>2014-06-29T13:11:37Z</time>
      </trkpt>
      <trkpt lat="42.78972" lon="-0.25515">
        <ele>2480.3</ele>
        <time>2014-06-29T13:11:57Z</time>
      </trkpt>
      <trkpt lat="42.78972" lon="-0.25542">
        <ele>2480.8</ele>
        <time>2014-06-29T13:12:17Z</time>
      </trkpt>
      <trkpt lat="42.78967" lon="-0.25592">
        <ele>2490</ele>
        <time>2014-06-29T13:12:37Z</time>
      </trkpt>
      <trkpt lat="42.78962" lon="-0.25608">
        <ele>2492.4</ele>
        <time>2014-06-29T13:12:57Z</time>
      </trkpt>
      <trkpt lat="42.78955" lon="-0.25641">
        <ele>2500</ele>
        <time>2014-06-29T13:13:17Z</time>
      </trkpt>
      <trkpt lat="42.78962" lon="-0.25671">
        <ele>2508.7</ele>
        <time>2014-06-29T13:13:37Z</time>
      </trkpt>
      <trkpt lat="42.78955" lon="-0.25743">
        <ele>2527.9</ele>
        <time>2014-06-29T13:13:57Z</time>
      </trkpt>
      <trkpt lat="42.78957" lon="-0.2576">
        <ele>2534.2</ele>
        <time>2014-06-29T13:14:17Z</time>
      </trkpt>
      <trkpt lat="42.78949" lon="-0.25814">
        <ele>2547.2</ele>
        <time>2014-06-29T13:14:37Z</time>
      </trkpt>
      <trkpt lat="42.78922" lon="-0.25891">
        <ele>2568.3</ele>
        <time>2014-06-29T13:14:57Z</time>
      </trkpt>
      <trkpt lat="42.78902" lon="-0.25937">
        <ele>2592.3</ele>
        <time>2014-06-29T13:15:17Z</time>
      </trkpt>
      <trkpt lat="42.78893" lon="-0.25968">
        <ele>2598.6</ele>
        <time>2014-06-29T13:15:37Z</time>
      </trkpt>
      <trkpt lat="42.78891" lon="-0.25982">
        <ele>2601</ele>
        <time>2014-06-29T13:15:57Z</time>
      </trkpt>
      <trkpt lat="42.78894" lon="-0.25986">
        <ele>2602.4</ele>
        <time>2014-06-29T13:16:17Z</time>
      </trkpt>
      <trkpt lat="42.78894" lon="-0.26003">
        <ele>2602.4</ele>
        <time>2014-06-29T13:16:37Z</time>
      </trkpt>
      <trkpt lat="42.78897" lon="-0.26022">
        <ele>2603.4</ele>
        <time>2014-06-29T13:16:57Z</time>
      </trkpt>
      <trkpt lat="42.7891" lon="-0.26048">
        <ele>2607.2</ele>
        <time>2014-06-29T13:17:17Z</time>
      </trkpt>
      <trkpt lat="42.78913" lon="-0.26055">
        <ele>2610.6</ele>
        <time>2014-06-29T13:17:37Z</time>
      </trkpt>
      <trkpt lat="42.78875" lon="-0.2607">
        <ele>2614.4</ele>
        <time>2014-06-29T13:17:57Z</time>
      </trkpt>
      <trkpt lat="42.78872" lon="-0.2608">
        <ele>2615.9</ele>
        <time>2014-06-29T13:18:17Z</time>
      </trkpt>
      <trkpt lat="42.78876" lon="-0.26078">
        <ele>2616.8</ele>
        <time>2014-06-29T13:18:37Z</time>
      </trkpt>
      <trkpt lat="42.78896" lon="-0.26122">
        <ele>2613.5</ele>
        <time>2014-06-29T13:18:57Z</time>
      </trkpt>
      <trkpt lat="42.78902" lon="-0.26142">
        <ele>2617.8</ele>
        <time>2014-06-29T13:19:17Z</time>
      </trkpt>
      <trkpt lat="42.78887" lon="-0.26173">
        <ele>2622.6</ele>
        <time>2014-06-29T13:19:37Z</time>
      </trkpt>
      <trkpt lat="42.78897" lon="-0.26179">
        <ele>2625.5</ele>
        <time>2014-06-29T13:19:57Z</time>
      </trkpt>
      <trkpt lat="42.78899" lon="-0.26186">
        <ele>2628.4</ele>
        <time>2014-06-29T13:20:17Z</time>
      </trkpt>
      <trkpt lat="42.78885" lon="-0.26207">
        <ele>2632.7</ele>
        <time>2014-06-29T13:20:37Z</time>
      </trkpt>
      <trkpt lat="42.78882" lon="-0.26222">
        <ele>2634.6</ele>
        <time>2014-06-29T13:20:57Z</time>
      </trkpt>
      <trkpt lat="42.7889" lon="-0.26231">
        <ele>2636.6</ele>
        <time>2014-06-29T13:21:17Z</time>
      </trkpt>
      <trkpt lat="42.78878" lon="-0.26255">
        <ele>2639</ele>
        <time>2014-06-29T13:21:37Z</time>
      </trkpt>
      <trkpt lat="42.78902" lon="-0.26256">
        <ele>2642.3</ele>
        <time>2014-06-29T13:21:57Z</time>
      </trkpt>
      <trkpt lat="42.78896" lon="-0.26277">
        <ele>2644.7</ele>
        <time>2014-06-29T13:22:17Z</time>
      </trkpt>
      <trkpt lat="42.78899" lon="-0.26293">
        <ele>2651.5</ele>
        <time>2014-06-29T13:22:37Z</time>
      </trkpt>
      <trkpt lat="42.78906" lon="-0.26296">
        <ele>2661.5</ele>
        <time>2014-06-29T13:22:57Z</time>
      </trkpt>
      <trkpt lat="42.78908" lon="-0.26316">
        <ele>2675</ele>
        <time>2014-06-29T13:23:17Z</time>
      </trkpt>
      <trkpt lat="42.78912" lon="-0.26321">
        <ele>2680.3</ele>
        <time>2014-06-29T13:23:37Z</time>
      </trkpt>
      <trkpt lat="42.78913" lon="-0.26342">
        <ele>2684.6</ele>
        <time>2014-06-29T13:23:57Z</time>
      </trkpt>
      <trkpt lat="42.7891" lon="-0.26351">
        <ele>2683.7</ele>
        <time>2014-06-29T13:24:17Z</time>
      </trkpt>
      <trkpt lat="42.78917" lon="-0.26368">
        <ele>2689.4</ele>
        <time>2014-06-29T13:24:37Z</time>
      </trkpt>
      <trkpt lat="42.78919" lon="-0.26394">
        <ele>2699.5</ele>
        <time>2014-06-29T13:24:57Z</time>
      </trkpt>
      <trkpt lat="42.78942" lon="-0.26436">
        <ele>2717.3</ele>
        <time>2014-06-29T13:25:17Z</time>
      </trkpt>
      <trkpt lat="42.78949" lon="-0.26451">
        <ele>2718.3</ele>
        <time>2014-06-29T13:25:37Z</time>
      </trkpt>
      <trkpt lat="42.78959" lon="-0.26466">
        <ele>2716.3</ele>
        <time>2014-06-29T13:25:57Z</time>
      </trkpt>
      <trkpt lat="42.78945" lon="-0.26471">
        <ele>2715.9</ele>
        <time>2014-06-29T13:26:17Z</time>
      </trkpt>
      <trkpt lat="42.78929" lon="-0.265">
        <ele>2714.9</ele>
        <time>2014-06-29T13:26:37Z</time>
      </trkpt>
      <trkpt lat="42.7893" lon="-0.26574">
        <ele>2709.6</ele>
        <time>2014-06-29T13:26:57Z</time>
      </trkpt>
      <trkpt lat="42.78938" lon="-0.26689">
        <ele>2698.6</ele>
        <time>2014-06-29T13:27:17Z</time>
      </trkpt>
      <trkpt lat="42.78929" lon="-0.26693">
        <ele>2688</ele>
        <time>2014-06-29T13:27:37Z</time>
      </trkpt>
      <trkpt lat="42.78928" lon="-0.26692">
        <ele>2685.6</ele>
        <time>2014-06-29T13:27:57Z</time>
      </trkpt>
      <trkpt lat="42.78933" lon="-0.26696">
        <ele>2687.5</ele>
        <time>2014-06-29T13:28:17Z</time>
      </trkpt>
      <trkpt lat="42.78936" lon="-0.26708">
        <ele>2682.2</ele>
        <time>2014-06-29T13:28:37Z</time>
      </trkpt>
      <trkpt lat="42.78944" lon="-0.26725">
        <ele>2678.9</ele>
        <time>2014-06-29T13:28:57Z</time>
      </trkpt>
      <trkpt lat="42.78967" lon="-0.26737">
        <ele>2697.1</ele>
        <time>2014-06-29T13:29:17Z</time>
      </trkpt>
      <trkpt lat="42.78976" lon="-0.26762">
        <ele>2703.8</ele>
        <time>2014-06-29T13:29:37Z</time>
      </trkpt>
      <trkpt lat="42.78994" lon="-0.26791">
        <ele>2706.7</ele>
        <time>2014-06-29T13:29:57Z</time>
      </trkpt>
      <trkpt lat="42.79" lon="-0.26808">
        <ele>2703.4</ele>
        <time>2014-06-29T13:30:17Z</time>
      </trkpt>
      <trkpt lat="42.79013" lon="-0.26826">
        <ele>2701.4</ele>
        <time>2014-06-29T13:30:37Z</time>
      </trkpt>
      <trkpt lat="42.79019" lon="-0.26849">
        <ele>2696.2</ele>
        <time>2014-06-29T13:30:57Z</time>
      </trkpt>
      <trkpt lat="42.79025" lon="-0.26855">
        <ele>2695.7</ele>
        <time>2014-06-29T13:31:17Z</time>
      </trkpt>
      <trkpt lat="42.79028" lon="-0.26866">
        <ele>2689.9</ele>
        <time>2014-06-29T13:31:37Z</time>
      </trkpt>
      <trkpt lat="42.79011" lon="-0.26905">
        <ele>2680.8</ele>
        <time>2014-06-29T13:31:57Z</time>
      </trkpt>
      <trkpt lat="42.79011" lon="-0.26914">
        <ele>2678.4</ele>
        <time>2014-06-29T13:32:17Z</time>
      </trkpt>
      <trkpt lat="42.78996" lon="-0.26932">
        <ele>2676</ele>
        <time>2014-06-29T13:32:37Z</time>
      </trkpt>
      <trkpt lat="42.78997" lon="-0.26937">
        <ele>2676.9</ele>
        <time>2014-06-29T13:32:57Z</time>
      </trkpt>
      <trkpt lat="42.79001" lon="-0.26943">
        <ele>2690.9</ele>
        <time>2014-06-29T13:33:17Z</time>
      </trkpt>
      <trkpt lat="42.79" lon="-0.26952">
        <ele>2693.8</ele>
        <time>2014-06-29T13:33:37Z</time>
      </trkpt>
      <trkpt lat="42.79005" lon="-0.26954">
        <ele>2698.1</ele>
        <time>2014-06-29T13:33:57Z</time>
      </trkpt>
      <trkpt lat="42.79" lon="-0.26987">
        <ele>2709.1</ele>
        <time>2014-06-29T13:34:17Z</time>
      </trkpt>
      <trkpt lat="42.79001" lon="-0.27005">
        <ele>2713</ele>
        <time>2014-06-29T13:34:37Z</time>
      </trkpt>
      <trkpt lat="42.79005" lon="-0.27016">
        <ele>2711.5</ele>
        <time>2014-06-29T13:34:57Z</time>
      </trkpt>
      <trkpt lat="42.79023" lon="-0.27055">
        <ele>2719.7</ele>
        <time>2014-06-29T13:35:17Z</time>
      </trkpt>
      <trkpt lat="42.79048" lon="-0.27077">
        <ele>2723.6</ele>
        <time>2014-06-29T13:35:37Z</time>
      </trkpt>
      <trkpt lat="42.79055" lon="-0.27081">
        <ele>2728.8</ele>
        <time>2014-06-29T13:35:57Z</time>
      </trkpt>
      <trkpt lat="42.79057" lon="-0.27089">
        <ele>2734.6</ele>
        <time>2014-06-29T13:36:17Z</time>
      </trkpt>
      <trkpt lat="42.79056" lon="-0.27072">
        <ele>2740.9</ele>
        <time>2014-06-29T13:36:37Z</time>
      </trkpt>
      <trkpt lat="42.79066" lon="-0.27047">
        <ele>2746.1</ele>
        <time>2014-06-29T13:36:57Z</time>
      </trkpt>
      <trkpt lat="42.79068" lon="-0.27045">
        <ele>2749.5</ele>
        <time>2014-06-29T13:37:17Z</time>
      </trkpt>
      <trkpt lat="42.79075" lon="-0.27055">
        <ele>2755.8</ele>
        <time>2014-06-29T13:37:37Z</time>
      </trkpt>
      <trkpt lat="42.79078" lon="-0.27039">
        <ele>2761.5</ele>
        <time>2014-06-29T13:37:57Z</time>
      </trkpt>
      <trkpt lat="42.79088" lon="-0.27014">
        <ele>2765.9</ele>
        <time>2014-06-29T13:38:17Z</time>
      </trkpt>
      <trkpt lat="42.791" lon="-0.26992">
        <ele>2770.2</ele>
        <time>2014-06-29T13:38:37Z</time>
      </trkpt>
      <trkpt lat="42.79108" lon="-0.27019">
        <ele>2778.3</ele>
        <time>2014-06-29T13:38:57Z</time>
      </trkpt>
      <trkpt lat="42.79116" lon="-0.27032">
        <ele>2782.2</ele>
        <time>2014-06-29T13:39:17Z</time>
      </trkpt>
      <trkpt lat="42.79126" lon="-0.27039">
        <ele>2785.6</ele>
        <time>2014-06-29T13:39:37Z</time>
      </trkpt>
      <trkpt lat="42.79131" lon="-0.27036">
        <ele>2787</ele>
        <time>2014-06-29T13:39:57Z</time>
      </trkpt>
      <trkpt lat="42.79142" lon="-0.27009">
        <ele>2792.8</ele>
        <time>2014-06-29T13:40:17Z</time>
      </trkpt>
      <trkpt lat="42.79147" lon="-0.27005">
        <ele>2795.7</ele>
        <time>2014-06-29T13:40:37Z</time>
      </trkpt>
      <trkpt lat="42.79153" lon="-0.2702">
        <ele>2798.1</ele>
        <time>2014-06-29T13:40:57Z</time>
      </trkpt>
      <trkpt lat="42.79166" lon="-0.27043">
        <ele>2807.2</ele>
        <time>2014-06-29T13:41:17Z</time>
      </trkpt>
      <trkpt lat="42.79169" lon="-0.27024">
        <ele>2811.5</ele>
        <time>2014-06-29T13:41:37Z</time>
      </trkpt>
      <trkpt lat="42.79181" lon="-0.27011">
        <ele>2814.4</ele>
        <time>2014-06-29T13:41:57Z</time>
      </trkpt>
      <trkpt lat="42.79185" lon="-0.27014">
        <ele>2816.3</ele>
        <time>2014-06-29T13:42:17Z</time>
      </trkpt>
      <trkpt lat="42.7919" lon="-0.27026">
        <ele>2820.6</ele>
        <time>2014-06-29T13:42:37Z</time>
      </trkpt>
      <trkpt lat="42.79191" lon="-0.2702">
        <ele>2821.6</ele>
        <time>2014-06-29T13:42:57Z</time>
      </trkpt>
      <trkpt lat="42.79199" lon="-0.27009">
        <ele>2825.5</ele>
        <time>2014-06-29T13:43:17Z</time>
      </trkpt>
      <trkpt lat="42.79206" lon="-0.2703">
        <ele>2829.8</ele>
        <time>2014-06-29T13:43:37Z</time>
      </trkpt>
      <trkpt lat="42.7921" lon="-0.27038">
        <ele>2832.2</ele>
        <time>2014-06-29T13:43:57Z</time>
      </trkpt>
      <trkpt lat="42.79213" lon="-0.27038">
        <ele>2834.1</ele>
        <time>2014-06-29T13:44:17Z</time>
      </trkpt>
      <trkpt lat="42.79219" lon="-0.27022">
        <ele>2836.5</ele>
        <time>2014-06-29T13:44:37Z</time>
      </trkpt>
      <trkpt lat="42.79223" lon="-0.27022">
        <ele>2840.8</ele>
        <time>2014-06-29T13:44:57Z</time>
      </trkpt>
      <trkpt lat="42.7923" lon="-0.27033">
        <ele>2845.2</ele>
        <time>2014-06-29T13:45:17Z</time>
      </trkpt>
      <trkpt lat="42.79236" lon="-0.27021">
        <ele>2847.1</ele>
        <time>2014-06-29T13:45:37Z</time>
      </trkpt>
      <trkpt lat="42.79241" lon="-0.27028">
        <ele>2851.9</ele>
        <time>2014-06-29T13:45:57Z</time>
      </trkpt>
      <trkpt lat="42.79246" lon="-0.27022">
        <ele>2854.8</ele>
        <time>2014-06-29T13:46:17Z</time>
      </trkpt>
      <trkpt lat="42.79248" lon="-0.27032">
        <ele>2860.5</ele>
        <time>2014-06-29T13:46:37Z</time>
      </trkpt>
      <trkpt lat="42.79255" lon="-0.27022">
        <ele>2863.9</ele>
        <time>2014-06-29T13:46:57Z</time>
      </trkpt>
      <trkpt lat="42.79259" lon="-0.27027">
        <ele>2868.2</ele>
        <time>2014-06-29T13:47:17Z</time>
      </trkpt>
      <trkpt lat="42.79272" lon="-0.27011">
        <ele>2873.5</ele>
        <time>2014-06-29T13:47:37Z</time>
      </trkpt>
      <trkpt lat="42.79278" lon="-0.27008">
        <ele>2874</ele>
        <time>2014-06-29T13:47:57Z</time>
      </trkpt>
      <trkpt lat="42.79279" lon="-0.27024">
        <ele>2876.9</ele>
        <time>2014-06-29T13:48:17Z</time>
      </trkpt>
      <trkpt lat="42.79292" lon="-0.2704">
        <ele>2887.5</ele>
        <time>2014-06-29T13:48:37Z</time>
      </trkpt>
      <trkpt lat="42.79294" lon="-0.27039">
        <ele>2889.9</ele>
        <time>2014-06-29T13:48:57Z</time>
      </trkpt>
      <trkpt lat="42.79293" lon="-0.27041">
        <ele>2886.5</ele>
        <time>2014-06-29T13:49:17Z</time>
      </trkpt>
      <trkpt lat="42.79285" lon="-0.27031">
        <ele>2884.1</ele>
        <time>2014-06-29T13:49:37Z</time>
      </trkpt>
      <trkpt lat="42.79282" lon="-0.27033">
        <ele>2883.1</ele>
        <time>2014-06-29T13:49:57Z</time>
      </trkpt>
      <trkpt lat="42.79279" lon="-0.27024">
        <ele>2880.7</ele>
        <time>2014-06-29T13:50:17Z</time>
      </trkpt>
      <trkpt lat="42.79271" lon="-0.27028">
        <ele>2878.8</ele>
        <time>2014-06-29T13:50:37Z</time>
      </trkpt>
      <trkpt lat="42.79268" lon="-0.27022">
        <ele>2875.9</ele>
        <time>2014-06-29T13:50:57Z</time>
      </trkpt>
      <trkpt lat="42.79271" lon="-0.26976">
        <ele>2863.9</ele>
        <time>2014-06-29T13:51:17Z</time>
      </trkpt>
      <trkpt lat="42.79274" lon="-0.26973">
        <ele>2861</ele>
        <time>2014-06-29T13:51:37Z</time>
      </trkpt>
      <trkpt lat="42.79265" lon="-0.26966">
        <ele>2859.6</ele>
        <time>2014-06-29T13:51:57Z</time>
      </trkpt>
      <trkpt lat="42.79265" lon="-0.26937">
        <ele>2851.4</ele>
        <time>2014-06-29T13:52:17Z</time>
      </trkpt>
      <trkpt lat="42.79258" lon="-0.2694">
        <ele>2850</ele>
        <time>2014-06-29T13:52:37Z</time>
      </trkpt>
      <trkpt lat="42.79236" lon="-0.26977">
        <ele>2844.7</ele>
        <time>2014-06-29T13:52:57Z</time>
      </trkpt>
      <trkpt lat="42.79213" lon="-0.27002">
        <ele>2839.4</ele>
        <time>2014-06-29T13:53:17Z</time>
      </trkpt>
      <trkpt lat="42.79212" lon="-0.26993">
        <ele>2836.5</ele>
        <time>2014-06-29T13:53:37Z</time>
      </trkpt>
      <trkpt lat="42.79222" lon="-0.26942">
        <ele>2828.8</ele>
        <time>2014-06-29T13:53:57Z</time>
      </trkpt>
      <trkpt lat="42.79209" lon="-0.26956">
        <ele>2822.6</ele>
        <time>2014-06-29T13:54:17Z</time>
      </trkpt>
      <trkpt lat="42.79168" lon="-0.27012">
        <ele>2813.9</ele>
        <time>2014-06-29T13:54:37Z</time>
      </trkpt>
      <trkpt lat="42.79166" lon="-0.27012">
        <ele>2811</ele>
        <time>2014-06-29T13:54:57Z</time>
      </trkpt>
      <trkpt lat="42.79153" lon="-0.27017">
        <ele>2806.2</ele>
        <time>2014-06-29T13:55:17Z</time>
      </trkpt>
      <trkpt lat="42.79149" lon="-0.26999">
        <ele>2801.4</ele>
        <time>2014-06-29T13:55:37Z</time>
      </trkpt>
      <trkpt lat="42.79136" lon="-0.27008">
        <ele>2798.1</ele>
        <time>2014-06-29T13:55:57Z</time>
      </trkpt>
      <trkpt lat="42.79129" lon="-0.26996">
        <ele>2794.7</ele>
        <time>2014-06-29T13:56:17Z</time>
      </trkpt>
      <trkpt lat="42.79128" lon="-0.26989">
        <ele>2790.8</ele>
        <time>2014-06-29T13:56:37Z</time>
      </trkpt>
      <trkpt lat="42.79112" lon="-0.27">
        <ele>2787</ele>
        <time>2014-06-29T13:56:57Z</time>
      </trkpt>
      <trkpt lat="42.79108" lon="-0.26989">
        <ele>2783.2</ele>
        <time>2014-06-29T13:57:17Z</time>
      </trkpt>
      <trkpt lat="42.79108" lon="-0.2697">
        <ele>2777.9</ele>
        <time>2014-06-29T13:57:37Z</time>
      </trkpt>
      <trkpt lat="42.79094" lon="-0.26971">
        <ele>2771.6</ele>
        <time>2014-06-29T13:57:57Z</time>
      </trkpt>
      <trkpt lat="42.79075" lon="-0.27005">
        <ele>2766.8</ele>
        <time>2014-06-29T13:58:17Z</time>
      </trkpt>
      <trkpt lat="42.79067" lon="-0.27033">
        <ele>2761.5</ele>
        <time>2014-06-29T13:58:37Z</time>
      </trkpt>
      <trkpt lat="42.79063" lon="-0.27063">
        <ele>2756.7</ele>
        <time>2014-06-29T13:58:57Z</time>
      </trkpt>
      <trkpt lat="42.79059" lon="-0.27058">
        <ele>2753.8</ele>
        <time>2014-06-29T13:59:17Z</time>
      </trkpt>
      <trkpt lat="42.79044" lon="-0.27023">
        <ele>2747.1</ele>
        <time>2014-06-29T13:59:37Z</time>
      </trkpt>
      <trkpt lat="42.79034" lon="-0.27058">
        <ele>2742.3</ele>
        <time>2014-06-29T13:59:57Z</time>
      </trkpt>
      <trkpt lat="42.79024" lon="-0.27055">
        <ele>2737</ele>
        <time>2014-06-29T14:00:17Z</time>
      </trkpt>
      <trkpt lat="42.79017" lon="-0.27024">
        <ele>2730.8</ele>
        <time>2014-06-29T14:00:37Z</time>
      </trkpt>
      <trkpt lat="42.79002" lon="-0.27016">
        <ele>2726.9</ele>
        <time>2014-06-29T14:00:57Z</time>
      </trkpt>
      <trkpt lat="42.78997" lon="-0.27002">
        <ele>2724</ele>
        <time>2014-06-29T14:01:17Z</time>
      </trkpt>
      <trkpt lat="42.78997" lon="-0.26938">
        <ele>2721.1</ele>
        <time>2014-06-29T14:01:37Z</time>
      </trkpt>
      <trkpt lat="42.79028" lon="-0.26901">
        <ele>2719.2</ele>
        <time>2014-06-29T14:01:57Z</time>
      </trkpt>
      <trkpt lat="42.79052" lon="-0.26864">
        <ele>2716.3</ele>
        <time>2014-06-29T14:02:17Z</time>
      </trkpt>
      <trkpt lat="42.79069" lon="-0.26827">
        <ele>2717.3</ele>
        <time>2014-06-29T14:02:37Z</time>
      </trkpt>
      <trkpt lat="42.79063" lon="-0.26825">
        <ele>2715.9</ele>
        <time>2014-06-29T14:02:57Z</time>
      </trkpt>
      <trkpt lat="42.79065" lon="-0.26827">
        <ele>2709.1</ele>
        <time>2014-06-29T14:03:17Z</time>
      </trkpt>
      <trkpt lat="42.79063" lon="-0.26824">
        <ele>2708.7</ele>
        <time>2014-06-29T14:03:37Z</time>
      </trkpt>
      <trkpt lat="42.7907" lon="-0.26828">
        <ele>2707.2</ele>
        <time>2014-06-29T14:03:57Z</time>
      </trkpt>
      <trkpt lat="42.79074" lon="-0.2682">
        <ele>2706.7</ele>
        <time>2014-06-29T14:04:17Z</time>
      </trkpt>
      <trkpt lat="42.79097" lon="-0.26819">
        <ele>2705.8</ele>
        <time>2014-06-29T14:04:37Z</time>
      </trkpt>
      <trkpt lat="42.791" lon="-0.26808">
        <ele>2704.8</ele>
        <time>2014-06-29T14:04:57Z</time>
      </trkpt>
      <trkpt lat="42.79112" lon="-0.26803">
        <ele>2702.9</ele>
        <time>2014-06-29T14:05:17Z</time>
      </trkpt>
      <trkpt lat="42.79137" lon="-0.26801">
        <ele>2700.5</ele>
        <time>2014-06-29T14:05:37Z</time>
      </trkpt>
      <trkpt lat="42.79143" lon="-0.26782">
        <ele>2699.5</ele>
        <time>2014-06-29T14:05:57Z</time>
      </trkpt>
      <trkpt lat="42.79161" lon="-0.26759">
        <ele>2701.4</ele>
        <time>2014-06-29T14:06:17Z</time>
      </trkpt>
      <trkpt lat="42.79157" lon="-0.26751">
        <ele>2701.4</ele>
        <time>2014-06-29T14:06:37Z</time>
      </trkpt>
      <trkpt lat="42.79163" lon="-0.26738">
        <ele>2703.4</ele>
        <time>2014-06-29T14:06:57Z</time>
      </trkpt>
      <trkpt lat="42.79172" lon="-0.26726">
        <ele>2706.7</ele>
        <time>2014-06-29T14:07:17Z</time>
      </trkpt>
      <trkpt lat="42.79168" lon="-0.26707">
        <ele>2713.9</ele>
        <time>2014-06-29T14:07:37Z</time>
      </trkpt>
      <trkpt lat="42.79165" lon="-0.2664">
        <ele>2729.8</ele>
        <time>2014-06-29T14:07:57Z</time>
      </trkpt>
      <trkpt lat="42.79159" lon="-0.26599">
        <ele>2733.6</ele>
        <time>2014-06-29T14:08:17Z</time>
      </trkpt>
      <trkpt lat="42.79175" lon="-0.26627">
        <ele>2748.1</ele>
        <time>2014-06-29T14:08:37Z</time>
      </trkpt>
      <trkpt lat="42.79182" lon="-0.26635">
        <ele>2749.5</ele>
        <time>2014-06-29T14:08:57Z</time>
      </trkpt>
      <trkpt lat="42.79201" lon="-0.26678">
        <ele>2761</ele>
        <time>2014-06-29T14:09:17Z</time>
      </trkpt>
      <trkpt lat="42.79208" lon="-0.26681">
        <ele>2759.1</ele>
        <time>2014-06-29T14:09:37Z</time>
      </trkpt>
      <trkpt lat="42.79204" lon="-0.26679">
        <ele>2754.8</ele>
        <time>2014-06-29T14:09:57Z</time>
      </trkpt>
      <trkpt lat="42.79206" lon="-0.2668">
        <ele>2749.5</ele>
        <time>2014-06-29T14:10:17Z</time>
      </trkpt>
      <trkpt lat="42.79209" lon="-0.2668">
        <ele>2749.5</ele>
        <time>2014-06-29T14:10:37Z</time>
      </trkpt>
      <trkpt lat="42.79209" lon="-0.26684">
        <ele>2749</ele>
        <time>2014-06-29T14:10:57Z</time>
      </trkpt>
      <trkpt lat="42.79208" lon="-0.26675">
        <ele>2751.4</ele>
        <time>2014-06-29T14:11:17Z</time>
      </trkpt>
      <trkpt lat="42.79211" lon="-0.26679">
        <ele>2756.2</ele>
        <time>2014-06-29T14:11:37Z</time>
      </trkpt>
      <trkpt lat="42.79213" lon="-0.26675">
        <ele>2757.2</ele>
        <time>2014-06-29T14:11:57Z</time>
      </trkpt>
      <trkpt lat="42.79218" lon="-0.26675">
        <ele>2754.3</ele>
        <time>2014-06-29T14:12:17Z</time>
      </trkpt>
      <trkpt lat="42.79223" lon="-0.26669">
        <ele>2748.5</ele>
        <time>2014-06-29T14:12:37Z</time>
      </trkpt>
      <trkpt lat="42.79225" lon="-0.26654">
        <ele>2742.3</ele>
        <time>2014-06-29T14:12:57Z</time>
      </trkpt>
      <trkpt lat="42.79228" lon="-0.26642">
        <ele>2742.8</ele>
        <time>2014-06-29T14:13:17Z</time>
      </trkpt>
      <trkpt lat="42.7923" lon="-0.26622">
        <ele>2734.6</ele>
        <time>2014-06-29T14:13:37Z</time>
      </trkpt>
      <trkpt lat="42.79235" lon="-0.26625">
        <ele>2730.3</ele>
        <time>2014-06-29T14:13:57Z</time>
      </trkpt>
      <trkpt lat="42.79235" lon="-0.26625">
        <ele>2724</ele>
        <time>2014-06-29T14:14:17Z</time>
      </trkpt>
      <trkpt lat="42.7925" lon="-0.26555">
        <ele>2717.8</ele>
        <time>2014-06-29T14:14:37Z</time>
      </trkpt>
      <trkpt lat="42.7927" lon="-0.26544">
        <ele>2707.7</ele>
        <time>2014-06-29T14:14:57Z</time>
      </trkpt>
      <trkpt lat="42.79295" lon="-0.26506">
        <ele>2700.5</ele>
        <time>2014-06-29T14:15:17Z</time>
      </trkpt>
      <trkpt lat="42.79305" lon="-0.26516">
        <ele>2693.8</ele>
        <time>2014-06-29T14:15:37Z</time>
      </trkpt>
      <trkpt lat="42.79318" lon="-0.2654">
        <ele>2686.5</ele>
        <time>2014-06-29T14:15:57Z</time>
      </trkpt>
      <trkpt lat="42.79334" lon="-0.26595">
        <ele>2670.7</ele>
        <time>2014-06-29T14:16:17Z</time>
      </trkpt>
      <trkpt lat="42.79339" lon="-0.26681">
        <ele>2659.6</ele>
        <time>2014-06-29T14:16:37Z</time>
      </trkpt>
      <trkpt lat="42.79373" lon="-0.26707">
        <ele>2653.9</ele>
        <time>2014-06-29T14:16:57Z</time>
      </trkpt>
      <trkpt lat="42.79385" lon="-0.26698">
        <ele>2647.6</ele>
        <time>2014-06-29T14:17:17Z</time>
      </trkpt>
      <trkpt lat="42.79394" lon="-0.26727">
        <ele>2642.8</ele>
        <time>2014-06-29T14:17:37Z</time>
      </trkpt>
      <trkpt lat="42.7944" lon="-0.26778">
        <ele>2626.9</ele>
        <time>2014-06-29T14:17:57Z</time>
      </trkpt>
      <trkpt lat="42.79449" lon="-0.2679">
        <ele>2613.5</ele>
        <time>2014-06-29T14:18:17Z</time>
      </trkpt>
      <trkpt lat="42.79464" lon="-0.26808">
        <ele>2600</ele>
        <time>2014-06-29T14:18:37Z</time>
      </trkpt>
      <trkpt lat="42.79476" lon="-0.26824">
        <ele>2595.7</ele>
        <time>2014-06-29T14:18:57Z</time>
      </trkpt>
      <trkpt lat="42.79551" lon="-0.26773">
        <ele>2577.4</ele>
        <time>2014-06-29T14:19:17Z</time>
      </trkpt>
      <trkpt lat="42.79573" lon="-0.26768">
        <ele>2572.1</ele>
        <time>2014-06-29T14:19:37Z</time>
      </trkpt>
      <trkpt lat="42.79603" lon="-0.26787">
        <ele>2571.7</ele>
        <time>2014-06-29T14:19:57Z</time>
      </trkpt>
      <trkpt lat="42.79602" lon="-0.26886">
        <ele>2561.6</ele>
        <time>2014-06-29T14:20:17Z</time>
      </trkpt>
      <trkpt lat="42.79607" lon="-0.26902">
        <ele>2556.8</ele>
        <time>2014-06-29T14:20:37Z</time>
      </trkpt>
      <trkpt lat="42.79587" lon="-0.26961">
        <ele>2550.5</ele>
        <time>2014-06-29T14:20:57Z</time>
      </trkpt>
      <trkpt lat="42.79614" lon="-0.26997">
        <ele>2531.3</ele>
        <time>2014-06-29T14:21:17Z</time>
      </trkpt>
      <trkpt lat="42.79631" lon="-0.26976">
        <ele>2528.9</ele>
        <time>2014-06-29T14:21:37Z</time>
      </trkpt>
      <trkpt lat="42.79631" lon="-0.26979">
        <ele>2527</ele>
        <time>2014-06-29T14:21:57Z</time>
      </trkpt>
      <trkpt lat="42.79643" lon="-0.26975">
        <ele>2519.8</ele>
        <time>2014-06-29T14:22:17Z</time>
      </trkpt>
      <trkpt lat="42.79673" lon="-0.2698">
        <ele>2508.2</ele>
        <time>2014-06-29T14:22:37Z</time>
      </trkpt>
      <trkpt lat="42.79677" lon="-0.26973">
        <ele>2506.8</ele>
        <time>2014-06-29T14:22:57Z</time>
      </trkpt>
      <trkpt lat="42.79705" lon="-0.26983">
        <ele>2493.8</ele>
        <time>2014-06-29T14:23:17Z</time>
      </trkpt>
      <trkpt lat="42.79753" lon="-0.2697">
        <ele>2477</ele>
        <time>2014-06-29T14:23:37Z</time>
      </trkpt>
      <trkpt lat="42.79764" lon="-0.26966">
        <ele>2476</ele>
        <time>2014-06-29T14:23:57Z</time>
      </trkpt>
      <trkpt lat="42.7979" lon="-0.26974">
        <ele>2473.1</ele>
        <time>2014-06-29T14:24:17Z</time>
      </trkpt>
      <trkpt lat="42.79809" lon="-0.26991">
        <ele>2468.3</ele>
        <time>2014-06-29T14:24:37Z</time>
      </trkpt>
      <trkpt lat="42.79846" lon="-0.27038">
        <ele>2463.5</ele>
        <time>2014-06-29T14:24:57Z</time>
      </trkpt>
      <trkpt lat="42.79875" lon="-0.27067">
        <ele>2458.7</ele>
        <time>2014-06-29T14:25:17Z</time>
      </trkpt>
      <trkpt lat="42.79896" lon="-0.27104">
        <ele>2455.8</ele>
        <time>2014-06-29T14:25:37Z</time>
      </trkpt>
      <trkpt lat="42.79904" lon="-0.27107">
        <ele>2455.3</ele>
        <time>2014-06-29T14:25:57Z</time>
      </trkpt>
      <trkpt lat="42.79924" lon="-0.27103">
        <ele>2451</ele>
        <time>2014-06-29T14:26:17Z</time>
      </trkpt>
      <trkpt lat="42.79946" lon="-0.27104">
        <ele>2444.3</ele>
        <time>2014-06-29T14:26:37Z</time>
      </trkpt>
      <trkpt lat="42.80033" lon="-0.27073">
        <ele>2423.6</ele>
        <time>2014-06-29T14:26:57Z</time>
      </trkpt>
      <trkpt lat="42.80114" lon="-0.27069">
        <ele>2412.1</ele>
        <time>2014-06-29T14:27:17Z</time>
      </trkpt>
      <trkpt lat="42.80176" lon="-0.27084">
        <ele>2406.3</ele>
        <time>2014-06-29T14:27:37Z</time>
      </trkpt>
      <trkpt lat="42.80139" lon="-0.27116">
        <ele>2396.2</ele>
        <time>2014-06-29T14:27:57Z</time>
      </trkpt>
      <trkpt lat="42.80123" lon="-0.27151">
        <ele>2395.3</ele>
        <time>2014-06-29T14:28:17Z</time>
      </trkpt>
      <trkpt lat="42.80127" lon="-0.27156">
        <ele>2392.4</ele>
        <time>2014-06-29T14:28:37Z</time>
      </trkpt>
      <trkpt lat="42.80141" lon="-0.27159">
        <ele>2384.2</ele>
        <time>2014-06-29T14:28:57Z</time>
      </trkpt>
      <trkpt lat="42.80155" lon="-0.27179">
        <ele>2379.9</ele>
        <time>2014-06-29T14:29:17Z</time>
      </trkpt>
      <trkpt lat="42.8017" lon="-0.27188">
        <ele>2372.2</ele>
        <time>2014-06-29T14:29:37Z</time>
      </trkpt>
      <trkpt lat="42.80193" lon="-0.27177">
        <ele>2360.7</ele>
        <time>2014-06-29T14:29:57Z</time>
      </trkpt>
      <trkpt lat="42.80207" lon="-0.2717">
        <ele>2361.6</ele>
        <time>2014-06-29T14:30:17Z</time>
      </trkpt>
      <trkpt lat="42.80217" lon="-0.27173">
        <ele>2358.7</ele>
        <time>2014-06-29T14:30:37Z</time>
      </trkpt>
      <trkpt lat="42.80207" lon="-0.27201">
        <ele>2349.6</ele>
        <time>2014-06-29T14:30:57Z</time>
      </trkpt>
      <trkpt lat="42.80217" lon="-0.27218">
        <ele>2347.7</ele>
        <time>2014-06-29T14:31:17Z</time>
      </trkpt>
      <trkpt lat="42.80237" lon="-0.27235">
        <ele>2339</ele>
        <time>2014-06-29T14:31:37Z</time>
      </trkpt>
      <trkpt lat="42.80249" lon="-0.27234">
        <ele>2336.1</ele>
        <time>2014-06-29T14:31:57Z</time>
      </trkpt>
      <trkpt lat="42.80255" lon="-0.27251">
        <ele>2329.9</ele>
        <time>2014-06-29T14:32:17Z</time>
      </trkpt>
      <trkpt lat="42.80248" lon="-0.2728">
        <ele>2324.6</ele>
        <time>2014-06-29T14:32:37Z</time>
      </trkpt>
      <trkpt lat="42.80256" lon="-0.27298">
        <ele>2320.3</ele>
        <time>2014-06-29T14:32:57Z</time>
      </trkpt>
      <trkpt lat="42.80272" lon="-0.2732">
        <ele>2305.9</ele>
        <time>2014-06-29T14:33:17Z</time>
      </trkpt>
      <trkpt lat="42.80273" lon="-0.27333">
        <ele>2303.9</ele>
        <time>2014-06-29T14:33:37Z</time>
      </trkpt>
      <trkpt lat="42.80288" lon="-0.27349">
        <ele>2297.2</ele>
        <time>2014-06-29T14:33:57Z</time>
      </trkpt>
      <trkpt lat="42.80309" lon="-0.27332">
        <ele>2289</ele>
        <time>2014-06-29T14:34:17Z</time>
      </trkpt>
      <trkpt lat="42.8034" lon="-0.27332">
        <ele>2278</ele>
        <time>2014-06-29T14:34:37Z</time>
      </trkpt>
      <trkpt lat="42.80405" lon="-0.273">
        <ele>2261.6</ele>
        <time>2014-06-29T14:34:57Z</time>
      </trkpt>
      <trkpt lat="42.80426" lon="-0.27294">
        <ele>2259.2</ele>
        <time>2014-06-29T14:35:17Z</time>
      </trkpt>
      <trkpt lat="42.80431" lon="-0.27301">
        <ele>2258.3</ele>
        <time>2014-06-29T14:35:37Z</time>
      </trkpt>
      <trkpt lat="42.80434" lon="-0.27332">
        <ele>2253.9</ele>
        <time>2014-06-29T14:35:57Z</time>
      </trkpt>
      <trkpt lat="42.80442" lon="-0.27353">
        <ele>2251.5</ele>
        <time>2014-06-29T14:36:17Z</time>
      </trkpt>
      <trkpt lat="42.80503" lon="-0.27346">
        <ele>2244.3</ele>
        <time>2014-06-29T14:36:37Z</time>
      </trkpt>
      <trkpt lat="42.80529" lon="-0.27355">
        <ele>2242.4</ele>
        <time>2014-06-29T14:36:57Z</time>
      </trkpt>
      <trkpt lat="42.80552" lon="-0.27381">
        <ele>2243.4</ele>
        <time>2014-06-29T14:37:17Z</time>
      </trkpt>
      <trkpt lat="42.80589" lon="-0.27426">
        <ele>2237.1</ele>
        <time>2014-06-29T14:37:37Z</time>
      </trkpt>
      <trkpt lat="42.80668" lon="-0.27457">
        <ele>2217.9</ele>
        <time>2014-06-29T14:37:57Z</time>
      </trkpt>
      <trkpt lat="42.80711" lon="-0.27512">
        <ele>2210.7</ele>
        <time>2014-06-29T14:38:17Z</time>
      </trkpt>
      <trkpt lat="42.80782" lon="-0.27545">
        <ele>2199.2</ele>
        <time>2014-06-29T14:38:37Z</time>
      </trkpt>
      <trkpt lat="42.80803" lon="-0.27568">
        <ele>2198.2</ele>
        <time>2014-06-29T14:38:57Z</time>
      </trkpt>
      <trkpt lat="42.80871" lon="-0.27595">
        <ele>2182.3</ele>
        <time>2014-06-29T14:39:17Z</time>
      </trkpt>
      <trkpt lat="42.80903" lon="-0.27598">
        <ele>2181.4</ele>
        <time>2014-06-29T14:39:37Z</time>
      </trkpt>
      <trkpt lat="42.80922" lon="-0.27695">
        <ele>2179.9</ele>
        <time>2014-06-29T14:39:57Z</time>
      </trkpt>
      <trkpt lat="42.80923" lon="-0.27698">
        <ele>2179.9</ele>
        <time>2014-06-29T14:40:17Z</time>
      </trkpt>
      <trkpt lat="42.80927" lon="-0.27697">
        <ele>2179.4</ele>
        <time>2014-06-29T14:40:37Z</time>
      </trkpt>
      <trkpt lat="42.80929" lon="-0.27699">
        <ele>2180.9</ele>
        <time>2014-06-29T14:40:57Z</time>
      </trkpt>
      <trkpt lat="42.80932" lon="-0.2771">
        <ele>2179.4</ele>
        <time>2014-06-29T14:41:17Z</time>
      </trkpt>
      <trkpt lat="42.8093" lon="-0.27737">
        <ele>2173.7</ele>
        <time>2014-06-29T14:41:37Z</time>
      </trkpt>
      <trkpt lat="42.80922" lon="-0.27745">
        <ele>2172.7</ele>
        <time>2014-06-29T14:41:57Z</time>
      </trkpt>
      <trkpt lat="42.80922" lon="-0.27741">
        <ele>2170.8</ele>
        <time>2014-06-29T14:42:17Z</time>
      </trkpt>
      <trkpt lat="42.80921" lon="-0.2774">
        <ele>2172.7</ele>
        <time>2014-06-29T14:42:37Z</time>
      </trkpt>
      <trkpt lat="42.80922" lon="-0.27744">
        <ele>2172.2</ele>
        <time>2014-06-29T14:42:57Z</time>
      </trkpt>
      <trkpt lat="42.80942" lon="-0.27762">
        <ele>2163.1</ele>
        <time>2014-06-29T14:43:17Z</time>
      </trkpt>
      <trkpt lat="42.80969" lon="-0.27783">
        <ele>2155.9</ele>
        <time>2014-06-29T14:43:37Z</time>
      </trkpt>
      <trkpt lat="42.80977" lon="-0.27807">
        <ele>2152</ele>
        <time>2014-06-29T14:43:57Z</time>
      </trkpt>
      <trkpt lat="42.81014" lon="-0.27831">
        <ele>2151.6</ele>
        <time>2014-06-29T14:44:17Z</time>
      </trkpt>
      <trkpt lat="42.81026" lon="-0.27832">
        <ele>2152</ele>
        <time>2014-06-29T14:44:37Z</time>
      </trkpt>
      <trkpt lat="42.81032" lon="-0.27843">
        <ele>2152</ele>
        <time>2014-06-29T14:44:57Z</time>
      </trkpt>
      <trkpt lat="42.81072" lon="-0.27857">
        <ele>2150.6</ele>
        <time>2014-06-29T14:45:17Z</time>
      </trkpt>
      <trkpt lat="42.81072" lon="-0.27904">
        <ele>2140.5</ele>
        <time>2014-06-29T14:45:37Z</time>
      </trkpt>
      <trkpt lat="42.81085" lon="-0.27933">
        <ele>2136.2</ele>
        <time>2014-06-29T14:45:57Z</time>
      </trkpt>
      <trkpt lat="42.81144" lon="-0.2801">
        <ele>2118.4</ele>
        <time>2014-06-29T14:46:17Z</time>
      </trkpt>
      <trkpt lat="42.81189" lon="-0.28139">
        <ele>2108.8</ele>
        <time>2014-06-29T14:46:37Z</time>
      </trkpt>
      <trkpt lat="42.81205" lon="-0.28207">
        <ele>2107.3</ele>
        <time>2014-06-29T14:46:57Z</time>
      </trkpt>
      <trkpt lat="42.81212" lon="-0.28284">
        <ele>2104.9</ele>
        <time>2014-06-29T14:47:17Z</time>
      </trkpt>
      <trkpt lat="42.81208" lon="-0.28331">
        <ele>2104</ele>
        <time>2014-06-29T14:47:37Z</time>
      </trkpt>
      <trkpt lat="42.81208" lon="-0.28328">
        <ele>2104</ele>
        <time>2014-06-29T14:47:57Z</time>
      </trkpt>
      <trkpt lat="42.8121" lon="-0.28329">
        <ele>2105.9</ele>
        <time>2014-06-29T14:48:17Z</time>
      </trkpt>
      <trkpt lat="42.8123" lon="-0.28439">
        <ele>2126.1</ele>
        <time>2014-06-29T14:48:37Z</time>
      </trkpt>
      <trkpt lat="42.8124" lon="-0.28418">
        <ele>2128.5</ele>
        <time>2014-06-29T14:48:57Z</time>
      </trkpt>
      <trkpt lat="42.81248" lon="-0.28382">
        <ele>2133.8</ele>
        <time>2014-06-29T14:49:17Z</time>
      </trkpt>
      <trkpt lat="42.81262" lon="-0.284">
        <ele>2139.1</ele>
        <time>2014-06-29T14:49:37Z</time>
      </trkpt>
      <trkpt lat="42.81275" lon="-0.28394">
        <ele>2142.4</ele>
        <time>2014-06-29T14:49:57Z</time>
      </trkpt>
      <trkpt lat="42.81304" lon="-0.28411">
        <ele>2144.8</ele>
        <time>2014-06-29T14:50:17Z</time>
      </trkpt>
      <trkpt lat="42.81319" lon="-0.28418">
        <ele>2142</ele>
        <time>2014-06-29T14:50:37Z</time>
      </trkpt>
      <trkpt lat="42.81356" lon="-0.28421">
        <ele>2133.3</ele>
        <time>2014-06-29T14:50:57Z</time>
      </trkpt>
      <trkpt lat="42.81396" lon="-0.28419">
        <ele>2125.6</ele>
        <time>2014-06-29T14:51:17Z</time>
      </trkpt>
      <trkpt lat="42.814" lon="-0.28413">
        <ele>2124.7</ele>
        <time>2014-06-29T14:51:37Z</time>
      </trkpt>
      <trkpt lat="42.81424" lon="-0.28459">
        <ele>2122.2</ele>
        <time>2014-06-29T14:51:57Z</time>
      </trkpt>
      <trkpt lat="42.81417" lon="-0.28474">
        <ele>2124.2</ele>
        <time>2014-06-29T14:52:17Z</time>
      </trkpt>
      <trkpt lat="42.81415" lon="-0.2849">
        <ele>2121.3</ele>
        <time>2014-06-29T14:52:37Z</time>
      </trkpt>
      <trkpt lat="42.81418" lon="-0.28519">
        <ele>2110.7</ele>
        <time>2014-06-29T14:52:57Z</time>
      </trkpt>
      <trkpt lat="42.81434" lon="-0.28508">
        <ele>2103</ele>
        <time>2014-06-29T14:53:17Z</time>
      </trkpt>
      <trkpt lat="42.81467" lon="-0.28465">
        <ele>2100.1</ele>
        <time>2014-06-29T14:53:37Z</time>
      </trkpt>
      <trkpt lat="42.81467" lon="-0.28465">
        <ele>2133.8</ele>
        <time>2014-06-29T14:53:57Z</time>
      </trkpt>
      <trkpt lat="42.81496" lon="-0.28524">
        <ele>2134.3</ele>
        <time>2014-06-29T14:54:17Z</time>
      </trkpt>
      <trkpt lat="42.81496" lon="-0.28524">
        <ele>2166.9</ele>
        <time>2014-06-29T14:54:37Z</time>
      </trkpt>
      <trkpt lat="42.81623" lon="-0.28508">
        <ele>2172.2</ele>
        <time>2014-06-29T14:54:57Z</time>
      </trkpt>
      <trkpt lat="42.81623" lon="-0.28508">
        <ele>2185.7</ele>
        <time>2014-06-29T14:55:17Z</time>
      </trkpt>
      <trkpt lat="42.81674" lon="-0.28603">
        <ele>2179.4</ele>
        <time>2014-06-29T14:55:37Z</time>
      </trkpt>
      <trkpt lat="42.81671" lon="-0.28603">
        <ele>2179.4</ele>
        <time>2014-06-29T14:55:57Z</time>
      </trkpt>
      <trkpt lat="42.81659" lon="-0.28582">
        <ele>2176.6</ele>
        <time>2014-06-29T14:56:17Z</time>
      </trkpt>
      <trkpt lat="42.81621" lon="-0.28672">
        <ele>2171.8</ele>
        <time>2014-06-29T14:56:37Z</time>
      </trkpt>
      <trkpt lat="42.81632" lon="-0.28686">
        <ele>2165.5</ele>
        <time>2014-06-29T14:56:57Z</time>
      </trkpt>
      <trkpt lat="42.81663" lon="-0.28667">
        <ele>2160.2</ele>
        <time>2014-06-29T14:57:17Z</time>
      </trkpt>
      <trkpt lat="42.81651" lon="-0.28712">
        <ele>2154.9</ele>
        <time>2014-06-29T14:57:37Z</time>
      </trkpt>
      <trkpt lat="42.8167" lon="-0.2874">
        <ele>2150.1</ele>
        <time>2014-06-29T14:57:57Z</time>
      </trkpt>
      <trkpt lat="42.81674" lon="-0.28767">
        <ele>2148.2</ele>
        <time>2014-06-29T14:58:17Z</time>
      </trkpt>
      <trkpt lat="42.81677" lon="-0.28783">
        <ele>2149.6</ele>
        <time>2014-06-29T14:58:37Z</time>
      </trkpt>
    </trkseg>
  </trk>
</gpx>